Time;durP1;ratioP1;P1;durP2;ratioP2;P2;SDS_P1;SDS_P2;PMS_P1;PMS_P2;Temp;Humidity;BMP_temperature;BMP_pressure;BME280_temperature;BME280_humidity;BME280_pressure;Samples;Min_cycle;Max_cycle;Signal;HPM_P1;HPM_P2
2022/11/02 00:01:59;;;;;;;8.27;3.13;;;;;;;;;;5007810;28;20033;-75
2022/11/02 00:04:24;;;;;;;11.82;3.17;;;;;;;;;;5014382;28;20033;-77
2022/11/02 00:06:53;;;;;;;12.88;4.57;;;;;;;;;;4973395;28;20052;-74
2022/11/02 00:09:18;;;;;;;13.73;3.92;;;;;;;;;;5006871;28;20045;-73
2022/11/02 00:11:44;;;;;;;8.77;4.15;;;;;;;;;;4973418;28;20526;-74
2022/11/02 00:14:10;;;;;;;13.70;3.80;;;;;;;;;;4981934;28;20434;-73
2022/11/02 00:16:37;;;;;;;12.77;4.25;;;;;;;;;;4990839;28;20041;-73
2022/11/02 00:19:03;;;;;;;14.68;6.03;;;;;;;;;;4988863;28;20033;-74
2022/11/02 00:21:29;;;;;;;24.65;7.32;;;;;;;;;;4981606;28;20032;-74
2022/11/02 00:23:55;;;;;;;17.48;5.30;;;;;;;;;;4974684;28;20045;-74
2022/11/02 00:26:21;;;;;;;18.20;5.88;;;;;;;;;;4991110;28;20041;-75
2022/11/02 00:28:47;;;;;;;19.67;7.72;;;;;;;;;;4974655;28;20045;-74
2022/11/02 00:31:12;;;;;;;20.70;8.88;;;;;;;;;;4980772;28;20103;-73
2022/11/02 00:33:39;;;;;;;38.05;14.88;;;;;;;;;;4990767;28;20053;-73
2022/11/02 00:36:06;;;;;;;25.17;11.10;;;;;;;;;;4989432;28;20566;-73
2022/11/02 00:38:32;;;;;;;28.05;9.95;;;;;;;;;;4972677;28;20033;-73
2022/11/02 00:40:59;;;;;;;31.58;9.60;;;;;;;;;;4990387;28;20056;-73
2022/11/02 00:43:25;;;;;;;26.23;9.05;;;;;;;;;;4996918;28;20472;-72
2022/11/02 00:45:50;;;;;;;16.38;6.82;;;;;;;;;;4979569;28;20045;-72
2022/11/02 00:48:16;;;;;;;22.08;7.97;;;;;;;;;;4971720;28;20045;-73
2022/11/02 00:50:41;;;;;;;21.20;7.90;;;;;;;;;;4969895;28;20034;-70
2022/11/02 00:53:07;;;;;;;26.05;7.03;;;;;;;;;;4979609;28;20044;-71
2022/11/02 00:55:33;;;;;;;20.27;7.32;;;;;;;;;;4971562;28;20046;-71
2022/11/02 00:58:02;;;;;;;21.80;6.20;;;;;;;;;;4978115;28;20029;-72
2022/11/02 01:00:28;;;;;;;19.13;7.25;;;;;;;;;;4976531;28;20033;-72
2022/11/02 01:02:53;;;;;;;18.40;6.82;;;;;;;;;;5012921;28;20030;-72
2022/11/02 01:05:19;;;;;;;21.10;7.43;;;;;;;;;;4978539;28;20061;-73
2022/11/02 01:07:46;;;;;;;20.40;7.38;;;;;;;;;;4987357;28;20037;-72
2022/11/02 01:10:12;;;;;;;14.48;6.22;;;;;;;;;;4973146;28;20052;-71
2022/11/02 01:12:38;;;;;;;15.75;6.38;;;;;;;;;;4980310;28;20030;-71
2022/11/02 01:15:05;;;;;;;17.10;6.57;;;;;;;;;;4973776;28;20080;-72
2022/11/02 01:17:31;;;;;;;13.88;4.68;;;;;;;;;;4989242;28;20575;-73
2022/11/02 01:19:57;;;;;;;15.45;4.85;;;;;;;;;;4979331;28;20459;-71
2022/11/02 01:22:24;;;;;;;10.50;3.47;;;;;;;;;;4997858;28;20176;-72
2022/11/02 01:24:49;;;;;;;9.90;3.60;;;;;;;;;;5013382;28;20460;-72
2022/11/02 01:27:15;;;;;;;7.38;3.22;;;;;;;;;;4979328;28;20128;-71
2022/11/02 01:29:42;;;;;;;8.38;3.53;;;;;;;;;;5006047;28;20045;-71
2022/11/02 01:32:08;;;;;;;10.95;3.45;;;;;;;;;;4972368;28;20033;-72
2022/11/02 01:34:33;;;;;;;9.73;3.35;;;;;;;;;;4971968;28;20102;-72
2022/11/02 01:36:59;;;;;;;9.30;3.28;;;;;;;;;;4989602;28;20033;-71
2022/11/02 01:39:25;;;;;;;7.78;3.22;;;;;;;;;;4988171;28;20438;-71
2022/11/02 01:41:54;;;;;;;7.47;3.00;;;;;;;;;;4980068;28;20116;-73
2022/11/02 01:44:29;;;;;;;11.60;3.95;;;;;;;;;;5014143;28;20467;-74
2022/11/02 01:46:56;;;;;;;14.20;5.43;;;;;;;;;;4972808;28;20620;-71
2022/11/02 01:49:22;;;;;;;21.92;6.03;;;;;;;;;;4989714;28;20379;-72
2022/11/02 01:51:50;;;;;;;23.85;7.18;;;;;;;;;;4979852;28;20034;-73
2022/11/02 01:54:19;;;;;;;24.23;7.68;;;;;;;;;;5013489;28;20048;-72
2022/11/02 01:56:47;;;;;;;16.83;7.00;;;;;;;;;;4972565;28;20030;-72
2022/11/02 01:59:15;;;;;;;19.25;6.95;;;;;;;;;;4997107;28;20056;-73
2022/11/02 02:01:41;;;;;;;18.25;7.22;;;;;;;;;;4995880;28;20042;-73
2022/11/02 02:04:07;;;;;;;27.48;12.15;;;;;;;;;;4973583;28;20040;-73
2022/11/02 02:06:36;;;;;;;39.33;19.55;;;;;;;;;;4988741;28;20044;-73
2022/11/02 02:09:04;;;;;;;41.58;23.70;;;;;;;;;;4989699;28;20456;-74
2022/11/02 02:11:31;;;;;;;44.20;22.15;;;;;;;;;;4986994;28;20026;-75
2022/11/02 02:14:01;;;;;;;41.88;20.35;;;;;;;;;;4988846;28;20507;-73
2022/11/02 02:16:48;;;;;;;36.08;19.77;;;;;;;;;;4979689;28;20041;-75
2022/11/02 02:19:32;;;;;;;61.17;22.85;;;;;;;;;;4972933;28;20485;-80
2022/11/02 02:22:11;;;;;;;40.97;21.45;;;;;;;;;;4974143;28;20045;-77
2022/11/02 02:24:43;;;;;;;32.10;17.00;;;;;;;;;;4998913;28;20387;-76
2022/11/02 02:27:22;;;;;;;33.40;12.93;;;;;;;;;;4998749;28;20047;-76
2022/11/02 02:29:58;;;;;;;23.50;12.85;;;;;;;;;;4998521;28;20052;-76
2022/11/02 02:32:26;;;;;;;27.20;11.32;;;;;;;;;;5014541;28;20482;-76
2022/11/02 02:35:03;;;;;;;24.10;9.80;;;;;;;;;;4982304;28;20065;-75
2022/11/02 02:37:48;;;;;;;15.60;9.55;;;;;;;;;;5031511;28;20384;-74
2022/11/02 02:40:17;;;;;;;25.17;11.10;;;;;;;;;;4982008;28;20033;-73
2022/11/02 02:42:45;;;;;;;22.83;11.45;;;;;;;;;;4997847;28;20037;-73
2022/11/02 02:45:21;;;;;;;19.25;10.98;;;;;;;;;;4998689;28;20120;-70
2022/11/02 02:47:51;;;;;;;29.77;11.20;;;;;;;;;;4981587;28;20033;-74
2022/11/02 02:50:19;;;;;;;27.25;12.75;;;;;;;;;;4981952;28;20084;-74
2022/11/02 02:52:47;;;;;;;29.75;13.63;;;;;;;;;;4997626;28;20064;-72
2022/11/02 02:55:22;;;;;;;28.70;12.82;;;;;;;;;;4981942;28;20099;-71
2022/11/02 02:57:50;;;;;;;18.40;8.88;;;;;;;;;;5014160;28;20037;-72
2022/11/02 03:00:17;;;;;;;20.58;10.30;;;;;;;;;;4997992;28;20455;-71
2022/11/02 03:02:59;;;;;;;24.83;11.57;;;;;;;;;;4981457;28;20037;-71
2022/11/02 03:05:35;;;;;;;25.45;12.30;;;;;;;;;;5014064;28;20426;-72
2022/11/02 03:08:12;;;;;;;33.33;13.13;;;;;;;;;;4981844;28;20068;-76
2022/11/02 03:10:58;;;;;;;25.98;12.07;;;;;;;;;;4982048;28;20037;-74
2022/11/02 03:13:30;;;;;;;18.20;9.07;;;;;;;;;;4997249;28;20040;-73
2022/11/02 03:16:00;;;;;;;18.02;8.07;;;;;;;;;;4981606;28;20122;-74
2022/11/02 03:18:49;;;;;;;18.07;8.70;;;;;;;;;;4981368;28;20041;-73
2022/11/02 03:21:22;;;;;;;20.85;10.65;;;;;;;;;;4946228;28;20052;-73
2022/11/02 03:23:51;;;;;;;20.88;10.90;;;;;;;;;;5004834;28;20041;-74
2022/11/02 03:26:16;;;;;;;15.00;8.75;;;;;;;;;;5011903;28;20038;-76
2022/11/02 03:28:53;;;;;;;17.73;8.20;;;;;;;;;;4970071;28;20088;-75
2022/11/02 03:31:19;;;;;;;16.40;7.40;;;;;;;;;;4971092;28;20045;-72
2022/11/02 03:33:48;;;;;;;12.68;5.78;;;;;;;;;;4992798;28;20061;-73
2022/11/02 03:36:18;;;;;;;10.25;5.15;;;;;;;;;;4993242;28;20035;-76
2022/11/02 03:38:59;;;;;;;14.07;4.75;;;;;;;;;;4986667;28;20471;-75
2022/11/02 03:41:26;;;;;;;12.13;4.88;;;;;;;;;;4994908;28;20033;-76
2022/11/02 03:43:56;;;;;;;8.20;3.90;;;;;;;;;;4980708;28;20450;-74
2022/11/02 03:46:22;;;;;;;11.60;4.00;;;;;;;;;;4977912;28;20116;-72
2022/11/02 03:48:50;;;;;;;13.13;3.33;;;;;;;;;;4977301;28;20413;-76
2022/11/02 03:51:19;;;;;;;10.45;3.80;;;;;;;;;;4994786;28;20036;-74
2022/11/02 03:53:57;;;;;;;9.23;3.95;;;;;;;;;;4978709;28;20110;-70
2022/11/02 03:56:31;;;;;;;11.93;4.47;;;;;;;;;;4970400;28;20130;-70
2022/11/02 03:58:58;;;;;;;11.52;3.95;;;;;;;;;;5002887;28;20041;-72
2022/11/02 04:01:25;;;;;;;8.00;3.95;;;;;;;;;;4993266;28;20029;-72
2022/11/02 04:03:51;;;;;;;14.73;4.65;;;;;;;;;;4969381;28;20120;-71
2022/11/02 04:06:17;;;;;;;12.43;4.75;;;;;;;;;;4977279;28;20506;-71
2022/11/02 04:08:44;;;;;;;12.82;4.75;;;;;;;;;;4970715;28;20386;-71
2022/11/02 04:16:45;;;;;;;13.57;4.70;;;;;;;;;;4986902;28;20666;-73
2022/11/02 04:19:27;;;;;;;9.50;3.85;;;;;;;;;;4986525;28;20046;-73
2022/11/02 04:27:31;;;;;;;9.15;4.43;;;;;;;;;;4986879;28;20022;-71
2022/11/02 04:29:59;;;;;;;13.98;4.65;;;;;;;;;;4994270;28;20192;-71
2022/11/02 04:35:16;;;;;;;10.85;4.57;;;;;;;;;;4975778;28;20046;-71
2022/11/02 04:40:32;;;;;;;10.02;4.60;;;;;;;;;;5001569;28;20037;-72
2022/11/02 04:42:58;;;;;;;14.45;4.38;;;;;;;;;;4981446;28;20025;-72
2022/11/02 04:45:24;;;;;;;13.00;4.53;;;;;;;;;;4990742;28;20426;-66
2022/11/02 04:47:50;;;;;;;7.70;4.15;;;;;;;;;;4997893;28;20033;-66
2022/11/02 04:50:16;;;;;;;9.02;3.92;;;;;;;;;;5006215;28;20033;-65
2022/11/02 04:52:42;;;;;;;10.68;4.63;;;;;;;;;;5014425;28;20069;-65
2022/11/02 04:55:08;;;;;;;10.55;4.35;;;;;;;;;;5004918;28;20062;-66
2022/11/02 04:57:34;;;;;;;12.95;4.85;;;;;;;;;;5006310;28;20040;-66
2022/11/02 05:00:00;;;;;;;7.93;4.18;;;;;;;;;;5029581;28;20025;-66
2022/11/02 05:02:30;;;;;;;8.65;4.05;;;;;;;;;;5003095;28;20046;-66
2022/11/02 05:04:56;;;;;;;8.75;4.25;;;;;;;;;;4974555;28;20691;-66
2022/11/02 05:07:22;;;;;;;11.57;4.00;;;;;;;;;;4987020;28;20029;-66
2022/11/02 05:09:48;;;;;;;10.10;3.63;;;;;;;;;;5013219;28;20052;-66
2022/11/02 05:12:14;;;;;;;11.52;3.85;;;;;;;;;;4996465;28;20033;-66
2022/11/02 05:14:39;;;;;;;11.98;3.70;;;;;;;;;;5005020;28;20132;-66
2022/11/02 05:17:06;;;;;;;10.48;3.70;;;;;;;;;;4996403;28;20029;-66
2022/11/02 05:19:34;;;;;;;8.77;3.72;;;;;;;;;;4997467;28;20033;-66
2022/11/02 05:22:00;;;;;;;8.25;3.78;;;;;;;;;;5004013;28;20033;-66
2022/11/02 05:24:27;;;;;;;11.15;4.10;;;;;;;;;;4988921;28;20044;-66
2022/11/02 05:26:52;;;;;;;15.10;4.10;;;;;;;;;;4986885;28;20034;-66
2022/11/02 05:29:18;;;;;;;6.53;3.63;;;;;;;;;;4978235;28;20053;-66
2022/11/02 05:31:44;;;;;;;7.70;3.55;;;;;;;;;;4995606;28;20380;-66
2022/11/02 05:34:09;;;;;;;9.82;3.90;;;;;;;;;;4981206;28;20065;-66
2022/11/02 05:36:35;;;;;;;11.00;3.53;;;;;;;;;;4983936;28;20029;-66
2022/11/02 05:39:01;;;;;;;9.95;3.42;;;;;;;;;;5011420;28;20046;-66
2022/11/02 05:41:27;;;;;;;7.88;3.92;;;;;;;;;;5006942;28;20033;-66
2022/11/02 05:43:54;;;;;;;9.35;4.15;;;;;;;;;;5015379;28;20041;-66
2022/11/02 05:46:22;;;;;;;12.52;4.13;;;;;;;;;;4998219;28;20179;-66
2022/11/02 05:48:47;;;;;;;12.70;3.83;;;;;;;;;;5032260;28;20132;-66
2022/11/02 05:51:13;;;;;;;8.27;4.13;;;;;;;;;;4998254;28;20040;-66
2022/11/02 05:53:38;;;;;;;11.75;4.53;;;;;;;;;;4982425;28;20163;-66
2022/11/02 05:56:05;;;;;;;13.68;5.00;;;;;;;;;;4998164;28;20037;-65
2022/11/02 05:58:31;;;;;;;10.73;5.00;;;;;;;;;;4982425;28;20476;-65
2022/11/02 06:01:01;;;;;;;12.10;4.70;;;;;;;;;;5014638;28;20115;-65
2022/11/02 06:03:26;;;;;;;9.32;4.65;;;;;;;;;;5014545;28;20037;-65
2022/11/02 06:05:56;;;;;;;11.27;4.88;;;;;;;;;;4998145;28;20471;-65
2022/11/02 06:08:21;;;;;;;13.82;5.57;;;;;;;;;;4997642;28;20038;-66
2022/11/02 06:10:47;;;;;;;13.48;5.60;;;;;;;;;;4998059;28;20522;-65
2022/11/02 06:13:13;;;;;;;13.60;5.57;;;;;;;;;;5013157;28;20107;-66
2022/11/02 06:15:38;;;;;;;23.70;6.45;;;;;;;;;;5014622;28;20068;-65
2022/11/02 06:18:04;;;;;;;17.55;6.60;;;;;;;;;;5031419;28;20038;-65
2022/11/02 06:20:29;;;;;;;16.92;7.10;;;;;;;;;;4982029;28;20065;-65
2022/11/02 06:22:55;;;;;;;15.18;7.07;;;;;;;;;;5030908;28;20034;-65
2022/11/02 06:25:20;;;;;;;21.50;7.05;;;;;;;;;;5014666;28;20152;-65
2022/11/02 06:27:51;;;;;;;15.88;7.55;;;;;;;;;;4997919;28;20067;-65
2022/11/02 06:30:17;;;;;;;17.15;7.60;;;;;;;;;;5013663;28;20064;-65
2022/11/02 06:32:50;;;;;;;18.40;7.32;;;;;;;;;;4997791;28;20141;-65
2022/11/02 06:35:16;;;;;;;17.17;7.75;;;;;;;;;;4965601;28;20054;-65
2022/11/02 06:37:42;;;;;;;29.05;10.35;;;;;;;;;;5011660;28;20468;-65
2022/11/02 06:40:09;;;;;;;18.92;7.07;;;;;;;;;;5005671;28;20044;-65
2022/11/02 06:42:35;;;;;;;16.25;8.07;;;;;;;;;;5031132;28;20474;-70
2022/11/02 06:45:01;;;;;;;18.58;7.50;;;;;;;;;;4996962;28;20049;-65
2022/11/02 06:47:30;;;;;;;16.38;7.72;;;;;;;;;;5031151;28;20553;-65
2022/11/02 06:49:56;;;;;;;16.42;7.45;;;;;;;;;;5013143;28;20084;-66
2022/11/02 06:52:21;;;;;;;19.63;7.10;;;;;;;;;;5002097;28;20063;-70
2022/11/02 06:54:47;;;;;;;18.15;6.85;;;;;;;;;;5000170;28;20033;-66
2022/11/02 06:57:12;;;;;;;20.52;7.53;;;;;;;;;;5004745;28;20033;-66
2022/11/02 06:59:38;;;;;;;21.27;8.45;;;;;;;;;;5016258;28;20048;-66
2022/11/02 07:02:03;;;;;;;25.60;8.70;;;;;;;;;;4979440;28;20033;-66
2022/11/02 07:04:29;;;;;;;17.38;8.52;;;;;;;;;;4977226;28;20037;-67
2022/11/02 07:06:55;;;;;;;22.88;9.20;;;;;;;;;;4993910;28;20061;-66
2022/11/02 07:09:20;;;;;;;18.27;7.18;;;;;;;;;;4994974;28;20057;-66
2022/11/02 07:11:46;;;;;;;21.90;7.30;;;;;;;;;;4987132;28;20053;-66
2022/11/02 07:14:11;;;;;;;21.75;7.75;;;;;;;;;;4994487;28;20036;-67
2022/11/02 07:16:37;;;;;;;17.77;6.88;;;;;;;;;;4969230;28;20021;-68
2022/11/02 07:19:03;;;;;;;23.95;6.97;;;;;;;;;;4970715;28;20037;-66
2022/11/02 07:21:28;;;;;;;13.35;6.57;;;;;;;;;;4995520;28;20167;-66
2022/11/02 07:23:54;;;;;;;19.17;6.53;;;;;;;;;;4995072;28;20130;-66
2022/11/02 07:26:19;;;;;;;20.38;9.23;;;;;;;;;;4996163;28;20029;-66
2022/11/02 07:28:45;;;;;;;17.38;7.78;;;;;;;;;;4994529;28;20041;-66
2022/11/02 07:31:11;;;;;;;17.67;7.47;;;;;;;;;;5011289;28;20048;-66
2022/11/02 07:33:36;;;;;;;20.90;8.35;;;;;;;;;;5027230;28;20065;-66
2022/11/02 07:36:04;;;;;;;14.10;7.20;;;;;;;;;;4994787;28;20083;-66
2022/11/02 07:38:29;;;;;;;21.20;8.43;;;;;;;;;;4991332;28;20045;-66
2022/11/02 07:40:55;;;;;;;18.77;8.70;;;;;;;;;;5008971;28;20040;-65
2022/11/02 07:43:20;;;;;;;20.63;9.18;;;;;;;;;;4992546;28;20038;-66
2022/11/02 07:45:57;;;;;;;24.05;9.63;;;;;;;;;;4984689;28;20030;-65
2022/11/02 07:48:22;;;;;;;23.45;9.52;;;;;;;;;;4970588;28;20030;-66
2022/11/02 07:50:48;;;;;;;21.02;10.02;;;;;;;;;;5000259;28;20543;-66
2022/11/02 07:53:14;;;;;;;23.00;10.40;;;;;;;;;;5009524;28;20033;-66
2022/11/02 07:55:39;;;;;;;21.40;10.63;;;;;;;;;;5000106;28;20034;-66
2022/11/02 07:58:09;;;;;;;24.55;10.90;;;;;;;;;;5018918;28;20034;-65
2022/11/02 08:00:36;;;;;;;21.58;10.70;;;;;;;;;;5026798;28;20044;-66
2022/11/02 08:03:03;;;;;;;23.23;11.35;;;;;;;;;;4969266;28;20037;-67
2022/11/02 08:05:29;;;;;;;22.85;10.45;;;;;;;;;;5002918;28;20025;-68
2022/11/02 08:07:59;;;;;;;27.35;11.70;;;;;;;;;;4991515;28;20048;-66
2022/11/02 08:10:24;;;;;;;19.30;10.93;;;;;;;;;;5004093;28;20440;-66
2022/11/02 08:12:50;;;;;;;20.58;10.73;;;;;;;;;;4978587;28;20033;-66
2022/11/02 08:15:15;;;;;;;20.60;10.88;;;;;;;;;;4995651;28;20038;-67
2022/11/02 08:17:41;;;;;;;26.92;10.52;;;;;;;;;;4997169;28;20029;-66
2022/11/02 08:20:06;;;;;;;20.55;10.18;;;;;;;;;;5013296;28;20044;-67
2022/11/02 08:22:36;;;;;;;14.13;9.90;;;;;;;;;;4973436;28;20251;-67
2022/11/02 08:25:01;;;;;;;23.92;10.88;;;;;;;;;;4988212;28;20057;-66
2022/11/02 08:27:28;;;;;;;28.38;11.48;;;;;;;;;;5020280;28;20034;-66
2022/11/02 08:29:54;;;;;;;21.90;10.88;;;;;;;;;;4989106;28;20382;-65
2022/11/02 08:32:19;;;;;;;31.58;10.55;;;;;;;;;;5001062;28;20574;-65
2022/11/02 08:34:45;;;;;;;25.92;11.35;;;;;;;;;;5021172;28;20131;-65
2022/11/02 08:37:11;;;;;;;21.45;10.32;;;;;;;;;;5005560;28;20033;-71
2022/11/02 08:39:36;;;;;;;19.95;10.85;;;;;;;;;;4972259;28;20041;-72
2022/11/02 08:42:02;;;;;;;27.58;11.70;;;;;;;;;;4980731;28;20855;-63
2022/11/02 08:44:33;;;;;;;23.85;11.15;;;;;;;;;;4997816;28;20542;-65
2022/11/02 08:46:58;;;;;;;21.50;11.18;;;;;;;;;;4989448;28;20145;-65
2022/11/02 08:49:24;;;;;;;20.00;11.00;;;;;;;;;;4982622;28;20442;-65
2022/11/02 08:51:49;;;;;;;21.83;11.27;;;;;;;;;;4982360;28;20033;-65
2022/11/02 08:54:15;;;;;;;17.63;9.93;;;;;;;;;;4995032;28;20073;-65
2022/11/02 08:56:40;;;;;;;20.73;10.27;;;;;;;;;;4989775;28;20033;-65
2022/11/02 08:59:08;;;;;;;37.08;11.50;;;;;;;;;;5003277;28;20136;-64
2022/11/02 09:01:34;;;;;;;21.00;10.30;;;;;;;;;;4998694;28;20357;-65
2022/11/02 09:03:59;;;;;;;22.05;9.75;;;;;;;;;;4978625;28;20073;-65
2022/11/02 09:06:25;;;;;;;25.67;9.98;;;;;;;;;;4995393;28;20041;-65
2022/11/02 09:08:51;;;;;;;20.60;9.95;;;;;;;;;;4979244;28;20412;-66
2022/11/02 09:11:19;;;;;;;25.38;10.45;;;;;;;;;;5012440;28;20361;-65
2022/11/02 09:13:44;;;;;;;20.60;10.20;;;;;;;;;;4982157;28;20037;-65
2022/11/02 09:16:10;;;;;;;22.00;10.05;;;;;;;;;;4999543;28;20029;-66
2022/11/02 09:18:35;;;;;;;22.50;11.20;;;;;;;;;;5015353;28;20037;-65
2022/11/02 09:21:02;;;;;;;23.48;10.52;;;;;;;;;;5031638;28;20034;-65
2022/11/02 09:23:27;;;;;;;24.25;10.85;;;;;;;;;;4998785;28;20084;-65
2022/11/02 09:25:53;;;;;;;23.90;10.48;;;;;;;;;;4995479;28;20393;-65
2022/11/02 09:28:18;;;;;;;23.50;10.50;;;;;;;;;;4979773;28;20044;-65
2022/11/02 09:30:44;;;;;;;17.83;11.02;;;;;;;;;;4991155;28;20037;-65
2022/11/02 09:33:09;;;;;;;25.02;11.25;;;;;;;;;;4999262;28;20082;-65
2022/11/02 09:35:37;;;;;;;29.77;12.30;;;;;;;;;;5007885;28;20077;-65
2022/11/02 09:38:03;;;;;;;31.83;11.93;;;;;;;;;;5010524;28;21001;-66
2022/11/02 09:40:30;;;;;;;23.05;10.65;;;;;;;;;;4992089;28;20026;-66
2022/11/02 09:43:05;;;;;;;25.25;11.32;;;;;;;;;;4992292;28;20404;-67
2022/11/02 09:45:49;;;;;;;21.73;10.45;;;;;;;;;;5026501;28;20045;-65
2022/11/02 09:48:17;;;;;;;20.10;10.90;;;;;;;;;;4996436;28;20045;-66
2022/11/02 09:50:52;;;;;;;23.42;11.48;;;;;;;;;;4995862;28;20040;-66
2022/11/02 09:53:20;;;;;;;21.23;10.38;;;;;;;;;;4997194;28;20476;-66
2022/11/02 09:55:50;;;;;;;21.80;10.60;;;;;;;;;;4998124;28;20388;-66
2022/11/02 09:58:19;;;;;;;22.70;10.27;;;;;;;;;;5012800;28;20045;-66
2022/11/02 10:00:47;;;;;;;20.92;11.80;;;;;;;;;;4978854;28;20042;-67
2022/11/02 10:03:19;;;;;;;22.15;10.95;;;;;;;;;;4996581;28;20037;-66
2022/11/02 10:05:44;;;;;;;21.48;10.27;;;;;;;;;;4998209;28;20543;-66
2022/11/02 10:08:16;;;;;;;23.52;10.60;;;;;;;;;;4994706;28;20183;-66
2022/11/02 10:11:00;;;;;;;16.83;10.18;;;;;;;;;;4979105;28;20034;-67
2022/11/02 10:13:38;;;;;;;22.35;11.52;;;;;;;;;;4974979;28;20057;-66
2022/11/02 10:16:14;;;;;;;27.70;11.13;;;;;;;;;;4977698;28;20263;-66
2022/11/02 10:18:41;;;;;;;25.42;10.75;;;;;;;;;;4988296;28;20120;-67
2022/11/02 10:21:06;;;;;;;22.85;10.70;;;;;;;;;;5003725;28;20156;-66
2022/11/02 10:23:34;;;;;;;23.92;10.70;;;;;;;;;;5004512;28;20131;-66
2022/11/02 10:26:01;;;;;;;20.60;11.23;;;;;;;;;;4994601;28;20038;-66
2022/11/02 10:28:29;;;;;;;20.42;11.05;;;;;;;;;;4991430;28;20471;-66
2022/11/02 10:31:02;;;;;;;22.27;11.23;;;;;;;;;;4978072;28;20257;-74
2022/11/02 10:33:35;;;;;;;26.27;10.02;;;;;;;;;;5020062;28;20053;-69
2022/11/02 10:36:16;;;;;;;22.27;11.07;;;;;;;;;;4985656;28;20348;-67
2022/11/02 10:38:56;;;;;;;22.63;10.82;;;;;;;;;;5005690;28;20360;-67
2022/11/02 10:41:28;;;;;;;19.08;10.82;;;;;;;;;;5002406;28;20076;-68
2022/11/02 10:44:02;;;;;;;24.08;10.40;;;;;;;;;;4999438;28;20033;-68
2022/11/02 10:46:46;;;;;;;21.08;11.18;;;;;;;;;;5002046;28;20387;-68
2022/11/02 10:49:14;;;;;;;21.15;10.52;;;;;;;;;;5001879;28;20052;-68
2022/11/02 10:51:40;;;;;;;26.42;11.45;;;;;;;;;;5004283;28;20112;-68
2022/11/02 10:54:11;;;;;;;29.65;11.55;;;;;;;;;;5000966;28;20196;-69
2022/11/02 10:56:37;;;;;;;24.80;12.20;;;;;;;;;;4996831;28;20033;-70
2022/11/02 10:59:11;;;;;;;22.98;12.38;;;;;;;;;;5012933;28;20106;-68
2022/11/02 11:01:43;;;;;;;19.35;10.90;;;;;;;;;;4971219;28;20025;-69
2022/11/02 11:04:28;;;;;;;24.10;11.95;;;;;;;;;;4971149;28;20188;-68
2022/11/02 11:06:55;;;;;;;24.33;11.13;;;;;;;;;;5003598;28;20056;-69
2022/11/02 11:09:44;;;;;;;22.52;11.48;;;;;;;;;;5009481;28;20037;-69
2022/11/02 11:12:19;;;;;;;24.92;12.45;;;;;;;;;;4979211;28;20464;-68
2022/11/02 11:15:01;;;;;;;26.27;12.00;;;;;;;;;;5001916;28;20435;-67
2022/11/02 11:17:37;;;;;;;24.10;11.13;;;;;;;;;;4988988;28;20427;-68
2022/11/02 11:20:04;;;;;;;22.83;11.07;;;;;;;;;;5003313;28;20454;-69
2022/11/02 11:22:37;;;;;;;22.67;10.75;;;;;;;;;;5020407;28;20037;-69
2022/11/02 11:25:12;;;;;;;20.35;11.13;;;;;;;;;;4985421;28;20030;-69
2022/11/02 11:27:45;;;;;;;25.25;10.20;;;;;;;;;;5003341;28;20037;-69
2022/11/02 11:30:25;;;;;;;21.67;10.68;;;;;;;;;;4992736;28;20119;-68
2022/11/02 11:32:51;;;;;;;18.70;9.73;;;;;;;;;;4996384;28;20061;-69
2022/11/02 11:35:18;;;;;;;20.25;10.30;;;;;;;;;;5024054;28;20064;-68
2022/11/02 11:38:00;;;;;;;14.05;9.27;;;;;;;;;;4988022;28;20148;-68
2022/11/02 11:40:28;;;;;;;20.38;8.93;;;;;;;;;;4986527;28;20064;-69
2022/11/02 11:42:55;;;;;;;18.05;8.60;;;;;;;;;;5020284;28;20034;-68
2022/11/02 11:45:25;;;;;;;19.23;8.98;;;;;;;;;;4987753;28;20135;-69
2022/11/02 11:47:55;;;;;;;18.70;9.23;;;;;;;;;;5005163;28;20041;-69
2022/11/02 11:50:21;;;;;;;13.73;8.10;;;;;;;;;;4990087;28;20049;-68
2022/11/02 11:52:47;;;;;;;20.20;9.27;;;;;;;;;;5005252;28;20052;-69
2022/11/02 11:55:26;;;;;;;28.98;9.18;;;;;;;;;;5013337;28;20042;-69
2022/11/02 11:58:04;;;;;;;21.58;8.75;;;;;;;;;;4997252;28;20034;-69
2022/11/02 12:00:30;;;;;;;15.60;9.10;;;;;;;;;;4981183;28;20048;-69
2022/11/02 12:03:04;;;;;;;22.05;9.20;;;;;;;;;;5016096;28;20041;-69
2022/11/02 12:05:31;;;;;;;19.85;8.70;;;;;;;;;;5005748;28;20044;-69
2022/11/02 12:08:15;;;;;;;34.30;9.27;;;;;;;;;;5016888;28;20037;-69
2022/11/02 12:10:41;;;;;;;16.38;8.70;;;;;;;;;;4995953;28;20507;-68
2022/11/02 12:13:18;;;;;;;17.25;9.07;;;;;;;;;;5013668;28;20049;-66
2022/11/02 12:16:02;;;;;;;18.75;9.55;;;;;;;;;;5000036;28;20049;-66
2022/11/02 12:18:46;;;;;;;22.27;9.38;;;;;;;;;;5016810;28;20447;-66
2022/11/02 12:21:31;;;;;;;23.58;9.10;;;;;;;;;;5016386;28;20041;-67
2022/11/02 12:24:08;;;;;;;15.75;8.43;;;;;;;;;;4999931;28;20061;-66
2022/11/02 12:26:37;;;;;;;15.32;8.25;;;;;;;;;;5031514;28;20041;-66
2022/11/02 12:29:10;;;;;;;18.75;7.95;;;;;;;;;;5014127;28;20060;-66
2022/11/02 12:31:40;;;;;;;30.10;8.45;;;;;;;;;;5014026;28;20037;-66
2022/11/02 12:34:33;;;;;;;18.30;7.60;;;;;;;;;;4981918;28;20060;-67
2022/11/02 12:37:15;;;;;;;19.95;7.60;;;;;;;;;;5013894;28;20464;-66
2022/11/02 12:39:47;;;;;;;12.68;7.07;;;;;;;;;;4999528;28;20041;-66
2022/11/02 12:42:12;;;;;;;18.73;7.97;;;;;;;;;;4996692;28;20041;-66
2022/11/02 12:44:41;;;;;;;18.77;7.20;;;;;;;;;;5013916;28;20053;-66
2022/11/02 12:47:19;;;;;;;12.30;6.70;;;;;;;;;;4980783;28;20034;-66
2022/11/02 12:49:48;;;;;;;18.73;6.90;;;;;;;;;;5013757;28;20049;-66
2022/11/02 12:52:23;;;;;;;15.88;7.13;;;;;;;;;;4997033;28;20048;-66
2022/11/02 12:54:50;;;;;;;21.27;6.88;;;;;;;;;;4996738;28;20088;-66
2022/11/02 12:57:18;;;;;;;12.45;6.43;;;;;;;;;;5012869;28;20048;-66
2022/11/02 12:59:46;;;;;;;10.18;5.85;;;;;;;;;;4999973;28;20047;-66
2022/11/02 13:02:11;;;;;;;12.90;6.80;;;;;;;;;;5016383;28;20176;-66
2022/11/02 13:04:59;;;;;;;23.40;7.20;;;;;;;;;;4997806;28;20124;-66
2022/11/02 13:07:28;;;;;;;17.33;6.75;;;;;;;;;;5013365;28;20041;-66
2022/11/02 13:09:53;;;;;;;15.13;7.05;;;;;;;;;;5009845;28;20042;-66
2022/11/02 13:12:20;;;;;;;18.23;7.00;;;;;;;;;;4995905;28;20044;-66
2022/11/02 13:14:47;;;;;;;18.00;6.75;;;;;;;;;;5027326;28;20502;-66
2022/11/02 13:17:17;;;;;;;14.40;6.40;;;;;;;;;;5033274;28;20395;-66
2022/11/02 13:19:45;;;;;;;13.13;6.80;;;;;;;;;;4999617;28;20148;-66
2022/11/02 13:22:12;;;;;;;16.77;6.90;;;;;;;;;;4999383;28;20482;-66
2022/11/02 13:24:51;;;;;;;18.60;6.93;;;;;;;;;;4999144;28;20053;-66
2022/11/02 13:27:25;;;;;;;19.40;7.65;;;;;;;;;;5033626;28;20052;-66
2022/11/02 13:29:53;;;;;;;16.63;8.10;;;;;;;;;;4995497;28;20056;-66
2022/11/02 13:32:45;;;;;;;15.45;7.70;;;;;;;;;;4995983;28;20085;-66
2022/11/02 13:35:16;;;;;;;12.55;7.18;;;;;;;;;;5001136;28;20053;-66
2022/11/02 13:37:45;;;;;;;16.02;7.47;;;;;;;;;;4998931;28;20042;-65
2022/11/02 13:40:15;;;;;;;13.90;7.30;;;;;;;;;;5014718;28;20071;-66
2022/11/02 13:43:00;;;;;;;26.20;7.25;;;;;;;;;;4999062;28;20037;-66
2022/11/02 13:45:31;;;;;;;17.63;7.22;;;;;;;;;;5014642;28;20038;-66
2022/11/02 13:48:00;;;;;;;16.55;7.47;;;;;;;;;;5014888;28;20065;-66
2022/11/02 13:50:27;;;;;;;17.48;7.75;;;;;;;;;;4998128;28;20551;-66
2022/11/02 13:52:57;;;;;;;18.35;7.40;;;;;;;;;;5015068;28;20095;-66
2022/11/02 13:55:26;;;;;;;11.65;6.40;;;;;;;;;;5015367;28;20049;-65
2022/11/02 13:57:56;;;;;;;25.88;7.50;;;;;;;;;;5014358;28;20033;-65
2022/11/02 14:00:21;;;;;;;16.60;7.30;;;;;;;;;;4998470;28;20041;-66
2022/11/02 14:02:48;;;;;;;16.00;7.18;;;;;;;;;;4998601;28;20098;-65
2022/11/02 14:05:43;;;;;;;20.77;8.07;;;;;;;;;;5015007;28;20029;-66
2022/11/02 14:08:10;;;;;;;22.15;8.20;;;;;;;;;;5000789;28;20475;-65
2022/11/02 14:10:36;;;;;;;16.95;7.63;;;;;;;;;;4998512;28;20033;-66
2022/11/02 14:13:02;;;;;;;20.13;7.32;;;;;;;;;;5012255;28;20495;-65
2022/11/02 14:15:30;;;;;;;18.63;7.00;;;;;;;;;;5015580;28;20175;-65
2022/11/02 14:18:01;;;;;;;13.65;7.03;;;;;;;;;;5001765;28;20044;-65
2022/11/02 14:20:37;;;;;;;15.80;7.18;;;;;;;;;;5031986;28;20071;-65
2022/11/02 14:23:09;;;;;;;19.08;7.80;;;;;;;;;;4993938;28;20042;-65
2022/11/02 14:25:54;;;;;;;17.85;7.40;;;;;;;;;;4994783;28;20133;-65
2022/11/02 14:28:20;;;;;;;16.00;6.95;;;;;;;;;;4998428;28;20034;-65
2022/11/02 14:30:47;;;;;;;16.20;7.05;;;;;;;;;;5014362;28;20133;-65
2022/11/02 14:33:30;;;;;;;18.70;6.63;;;;;;;;;;5004530;28;20033;-66
2022/11/02 14:36:01;;;;;;;19.27;6.73;;;;;;;;;;5004595;28;20072;-65
2022/11/02 14:38:37;;;;;;;14.93;6.75;;;;;;;;;;4997418;28;20088;-66
2022/11/02 14:41:13;;;;;;;17.73;6.85;;;;;;;;;;5014067;28;20037;-65
2022/11/02 14:43:58;;;;;;;13.60;7.10;;;;;;;;;;4997806;28;20033;-65
2022/11/02 14:46:32;;;;;;;12.27;6.90;;;;;;;;;;4978070;28;20038;-66
2022/11/02 14:49:00;;;;;;;12.20;7.00;;;;;;;;;;4978602;28;20046;-65
2022/11/02 14:51:26;;;;;;;17.17;7.23;;;;;;;;;;5031090;28;20037;-65
2022/11/02 14:53:55;;;;;;;14.03;6.43;;;;;;;;;;5013836;28;20095;-65
2022/11/02 14:56:21;;;;;;;11.87;6.90;;;;;;;;;;4998285;28;20809;-65